sensor_id;sensor_type;location;lat;lon;timestamp;P1;durP1;ratioP1;P2;durP2;ratioP2
6053;SDS011;3055;50.886;14.814;2022-07-25T00:00:09;4.03;;;3.67;;
6053;SDS011;3055;50.886;14.814;2022-07-25T00:02:37;3.57;;;3.27;;
6053;SDS011;3055;50.886;14.814;2022-07-25T00:05:06;3.50;;;3.20;;
6053;SDS011;3055;50.886;14.814;2022-07-25T00:07:33;4.73;;;3.40;;
6053;SDS011;3055;50.886;14.814;2022-07-25T00:10:00;3.37;;;3.17;;
6053;SDS011;3055;50.886;14.814;2022-07-25T00:12:28;4.47;;;3.20;;
6053;SDS011;3055;50.886;14.814;2022-07-25T00:14:55;3.80;;;3.47;;
6053;SDS011;3055;50.886;14.814;2022-07-25T00:17:22;3.73;;;3.43;;
6053;SDS011;3055;50.886;14.814;2022-07-25T00:19:49;3.87;;;3.47;;
6053;SDS011;3055;50.886;14.814;2022-07-25T00:22:16;3.53;;;3.23;;
6053;SDS011;3055;50.886;14.814;2022-07-25T00:24:43;5.23;;;3.17;;
6053;SDS011;3055;50.886;14.814;2022-07-25T00:27:10;3.83;;;3.00;;
6053;SDS011;3055;50.886;14.814;2022-07-25T00:29:38;3.47;;;3.17;;
6053;SDS011;3055;50.886;14.814;2022-07-25T00:32:05;3.20;;;2.97;;
6053;SDS011;3055;50.886;14.814;2022-07-25T00:34:32;3.50;;;3.00;;
6053;SDS011;3055;50.886;14.814;2022-07-25T00:36:59;3.10;;;2.90;;
6053;SDS011;3055;50.886;14.814;2022-07-25T00:39:26;3.83;;;3.53;;
6053;SDS011;3055;50.886;14.814;2022-07-25T00:41:53;4.77;;;3.00;;
6053;SDS011;3055;50.886;14.814;2022-07-25T00:44:21;3.60;;;3.30;;
6053;SDS011;3055;50.886;14.814;2022-07-25T00:46:50;3.83;;;3.00;;
6053;SDS011;3055;50.886;14.814;2022-07-25T00:49:17;3.30;;;3.07;;
6053;SDS011;3055;50.886;14.814;2022-07-25T00:51:44;4.17;;;3.00;;
6053;SDS011;3055;50.886;14.814;2022-07-25T00:54:12;3.10;;;2.80;;
6053;SDS011;3055;50.886;14.814;2022-07-25T00:56:40;3.40;;;2.90;;
6053;SDS011;3055;50.886;14.814;2022-07-25T00:59:08;3.20;;;2.90;;
6053;SDS011;3055;50.886;14.814;2022-07-25T01:01:35;2.97;;;2.70;;
6053;SDS011;3055;50.886;14.814;2022-07-25T01:04:04;3.90;;;2.80;;
6053;SDS011;3055;50.886;14.814;2022-07-25T01:06:32;3.70;;;2.90;;
6053;SDS011;3055;50.886;14.814;2022-07-25T01:09:00;3.63;;;3.33;;
6053;SDS011;3055;50.886;14.814;2022-07-25T01:11:27;3.00;;;2.80;;
6053;SDS011;3055;50.886;14.814;2022-07-25T01:13:54;4.97;;;3.40;;
6053;SDS011;3055;50.886;14.814;2022-07-25T01:16:21;4.03;;;3.63;;
6053;SDS011;3055;50.886;14.814;2022-07-25T01:18:48;3.40;;;3.10;;
6053;SDS011;3055;50.886;14.814;2022-07-25T01:21:16;3.60;;;3.00;;
6053;SDS011;3055;50.886;14.814;2022-07-25T01:23:43;3.60;;;3.17;;
6053;SDS011;3055;50.886;14.814;2022-07-25T01:26:11;3.80;;;3.40;;
6053;SDS011;3055;50.886;14.814;2022-07-25T01:28:38;3.90;;;3.53;;
6053;SDS011;3055;50.886;14.814;2022-07-25T01:31:05;3.43;;;3.13;;
6053;SDS011;3055;50.886;14.814;2022-07-25T01:33:32;5.93;;;2.90;;
6053;SDS011;3055;50.886;14.814;2022-07-25T01:35:59;3.87;;;3.47;;
6053;SDS011;3055;50.886;14.814;2022-07-25T01:38:27;3.07;;;2.87;;
6053;SDS011;3055;50.886;14.814;2022-07-25T01:40:54;4.27;;;3.33;;
6053;SDS011;3055;50.886;14.814;2022-07-25T01:43:22;3.27;;;3.07;;
6053;SDS011;3055;50.886;14.814;2022-07-25T01:45:48;3.70;;;3.40;;
6053;SDS011;3055;50.886;14.814;2022-07-25T01:48:15;3.53;;;3.23;;
6053;SDS011;3055;50.886;14.814;2022-07-25T01:50:42;4.00;;;3.53;;
6053;SDS011;3055;50.886;14.814;2022-07-25T01:53:09;3.37;;;2.97;;
6053;SDS011;3055;50.886;14.814;2022-07-25T01:55:37;3.60;;;3.30;;
6053;SDS011;3055;50.886;14.814;2022-07-25T01:58:04;3.20;;;2.93;;
6053;SDS011;3055;50.886;14.814;2022-07-25T02:00:31;2.83;;;2.63;;
6053;SDS011;3055;50.886;14.814;2022-07-25T02:02:58;3.10;;;2.90;;
6053;SDS011;3055;50.886;14.814;2022-07-25T02:05:43;3.17;;;2.97;;
6053;SDS011;3055;50.886;14.814;2022-07-25T02:08:09;3.73;;;3.43;;
6053;SDS011;3055;50.886;14.814;2022-07-25T02:10:38;3.80;;;3.50;;
6053;SDS011;3055;50.886;14.814;2022-07-25T02:13:05;3.90;;;3.50;;
6053;SDS011;3055;50.886;14.814;2022-07-25T02:15:32;3.33;;;3.10;;
6053;SDS011;3055;50.886;14.814;2022-07-25T02:17:59;3.30;;;3.00;;
6053;SDS011;3055;50.886;14.814;2022-07-25T02:20:25;3.30;;;3.10;;
6053;SDS011;3055;50.886;14.814;2022-07-25T02:22:52;4.00;;;3.47;;
6053;SDS011;3055;50.886;14.814;2022-07-25T02:25:19;3.73;;;3.23;;
6053;SDS011;3055;50.886;14.814;2022-07-25T02:27:48;3.70;;;3.40;;
6053;SDS011;3055;50.886;14.814;2022-07-25T02:30:15;3.60;;;3.30;;
6053;SDS011;3055;50.886;14.814;2022-07-25T02:32:42;3.67;;;2.67;;
6053;SDS011;3055;50.886;14.814;2022-07-25T02:35:09;3.60;;;3.30;;
6053;SDS011;3055;50.886;14.814;2022-07-25T02:37:36;3.60;;;3.00;;
6053;SDS011;3055;50.886;14.814;2022-07-25T02:40:03;3.57;;;3.10;;
6053;SDS011;3055;50.886;14.814;2022-07-25T02:42:31;5.37;;;3.30;;
6053;SDS011;3055;50.886;14.814;2022-07-25T02:44:59;3.30;;;3.00;;
6053;SDS011;3055;50.886;14.814;2022-07-25T02:47:26;3.33;;;3.03;;
6053;SDS011;3055;50.886;14.814;2022-07-25T02:49:53;3.13;;;2.93;;
6053;SDS011;3055;50.886;14.814;2022-07-25T02:52:20;4.77;;;3.23;;
6053;SDS011;3055;50.886;14.814;2022-07-25T02:54:47;3.80;;;3.40;;
6053;SDS011;3055;50.886;14.814;2022-07-25T02:57:15;3.30;;;3.00;;
6053;SDS011;3055;50.886;14.814;2022-07-25T02:59:42;3.10;;;2.90;;
6053;SDS011;3055;50.886;14.814;2022-07-25T03:02:10;4.70;;;3.40;;
6053;SDS011;3055;50.886;14.814;2022-07-25T03:04:37;3.07;;;2.87;;
6053;SDS011;3055;50.886;14.814;2022-07-25T03:07:04;3.50;;;3.20;;
6053;SDS011;3055;50.886;14.814;2022-07-25T03:09:31;3.60;;;3.30;;
6053;SDS011;3055;50.886;14.814;2022-07-25T03:11:57;3.70;;;3.40;;
6053;SDS011;3055;50.886;14.814;2022-07-25T03:14:24;3.40;;;3.20;;
6053;SDS011;3055;50.886;14.814;2022-07-25T03:16:51;3.33;;;3.03;;
6053;SDS011;3055;50.886;14.814;2022-07-25T03:19:20;3.70;;;3.40;;
6053;SDS011;3055;50.886;14.814;2022-07-25T03:21:47;3.80;;;3.50;;
6053;SDS011;3055;50.886;14.814;2022-07-25T03:24:14;3.40;;;3.10;;
6053;SDS011;3055;50.886;14.814;2022-07-25T03:26:41;3.03;;;2.83;;
6053;SDS011;3055;50.886;14.814;2022-07-25T03:29:07;3.50;;;3.20;;
6053;SDS011;3055;50.886;14.814;2022-07-25T03:31:34;3.87;;;3.57;;
6053;SDS011;3055;50.886;14.814;2022-07-25T03:34:01;3.13;;;2.83;;
6053;SDS011;3055;50.886;14.814;2022-07-25T03:36:30;3.23;;;2.80;;
6053;SDS011;3055;50.886;14.814;2022-07-25T03:38:57;4.60;;;3.17;;
6053;SDS011;3055;50.886;14.814;2022-07-25T03:41:23;4.03;;;3.57;;
6053;SDS011;3055;50.886;14.814;2022-07-25T03:43:51;8.20;;;3.53;;
6053;SDS011;3055;50.886;14.814;2022-07-25T03:46:18;3.47;;;3.17;;
6053;SDS011;3055;50.886;14.814;2022-07-25T03:48:45;3.50;;;3.23;;
6053;SDS011;3055;50.886;14.814;2022-07-25T03:51:11;3.43;;;2.87;;
6053;SDS011;3055;50.886;14.814;2022-07-25T03:53:40;3.83;;;3.40;;
6053;SDS011;3055;50.886;14.814;2022-07-25T03:56:25;3.37;;;3.07;;
6053;SDS011;3055;50.886;14.814;2022-07-25T03:58:52;4.27;;;3.10;;
6053;SDS011;3055;50.886;14.814;2022-07-25T04:01:19;3.13;;;2.90;;
6053;SDS011;3055;50.886;14.814;2022-07-25T04:03:46;3.30;;;3.10;;
6053;SDS011;3055;50.886;14.814;2022-07-25T04:06:12;2.77;;;2.57;;
6053;SDS011;3055;50.886;14.814;2022-07-25T04:08:41;3.10;;;2.80;;
6053;SDS011;3055;50.886;14.814;2022-07-25T04:11:08;3.40;;;3.07;;
6053;SDS011;3055;50.886;14.814;2022-07-25T04:13:35;3.47;;;3.00;;
6053;SDS011;3055;50.886;14.814;2022-07-25T04:16:02;3.77;;;2.93;;
6053;SDS011;3055;50.886;14.814;2022-07-25T04:18:30;3.73;;;3.30;;
6053;SDS011;3055;50.886;14.814;2022-07-25T04:20:57;5.00;;;3.00;;
6053;SDS011;3055;50.886;14.814;2022-07-25T04:23:24;2.97;;;2.73;;
6053;SDS011;3055;50.886;14.814;2022-07-25T04:25:54;3.20;;;2.90;;
6053;SDS011;3055;50.886;14.814;2022-07-25T04:28:21;4.07;;;2.77;;
6053;SDS011;3055;50.886;14.814;2022-07-25T04:30:48;5.17;;;3.27;;
6053;SDS011;3055;50.886;14.814;2022-07-25T04:33:15;3.10;;;2.80;;
6053;SDS011;3055;50.886;14.814;2022-07-25T04:35:42;3.20;;;2.90;;
6053;SDS011;3055;50.886;14.814;2022-07-25T04:38:09;3.10;;;2.80;;
6053;SDS011;3055;50.886;14.814;2022-07-25T04:40:37;3.30;;;3.00;;
6053;SDS011;3055;50.886;14.814;2022-07-25T04:43:06;2.87;;;2.63;;
6053;SDS011;3055;50.886;14.814;2022-07-25T04:45:34;2.90;;;2.60;;
6053;SDS011;3055;50.886;14.814;2022-07-25T04:48:02;2.70;;;2.50;;
6053;SDS011;3055;50.886;14.814;2022-07-25T04:50:29;2.90;;;2.60;;
6053;SDS011;3055;50.886;14.814;2022-07-25T04:52:56;5.37;;;2.80;;
6053;SDS011;3055;50.886;14.814;2022-07-25T04:55:23;3.50;;;2.60;;
6053;SDS011;3055;50.886;14.814;2022-07-25T04:57:50;2.90;;;2.23;;
6053;SDS011;3055;50.886;14.814;2022-07-25T05:00:18;2.40;;;2.20;;
6053;SDS011;3055;50.886;14.814;2022-07-25T05:02:45;3.93;;;2.67;;
6053;SDS011;3055;50.886;14.814;2022-07-25T05:05:12;2.97;;;2.10;;
6053;SDS011;3055;50.886;14.814;2022-07-25T05:07:39;2.50;;;1.50;;
6053;SDS011;3055;50.886;14.814;2022-07-25T05:10:06;5.27;;;2.13;;
6053;SDS011;3055;50.886;14.814;2022-07-25T05:12:34;2.30;;;1.53;;
6053;SDS011;3055;50.886;14.814;2022-07-25T05:15:01;1.77;;;1.67;;
6053;SDS011;3055;50.886;14.814;2022-07-25T05:17:29;2.10;;;1.90;;
6053;SDS011;3055;50.886;14.814;2022-07-25T05:19:56;1.93;;;1.70;;
6053;SDS011;3055;50.886;14.814;2022-07-25T05:22:23;2.20;;;2.00;;
6053;SDS011;3055;50.886;14.814;2022-07-25T05:24:50;1.70;;;1.47;;
6053;SDS011;3055;50.886;14.814;2022-07-25T05:27:17;2.30;;;1.87;;
6053;SDS011;3055;50.886;14.814;2022-07-25T05:29:44;2.70;;;1.73;;
6053;SDS011;3055;50.886;14.814;2022-07-25T05:32:11;4.63;;;2.03;;
6053;SDS011;3055;50.886;14.814;2022-07-25T05:34:39;3.23;;;1.80;;
6053;SDS011;3055;50.886;14.814;2022-07-25T05:37:06;2.80;;;1.70;;
6053;SDS011;3055;50.886;14.814;2022-07-25T05:39:33;1.83;;;1.67;;
6053;SDS011;3055;50.886;14.814;2022-07-25T05:42:01;3.33;;;1.90;;
6053;SDS011;3055;50.886;14.814;2022-07-25T05:44:28;2.10;;;1.80;;
6053;SDS011;3055;50.886;14.814;2022-07-25T05:46:55;2.00;;;1.90;;
6053;SDS011;3055;50.886;14.814;2022-07-25T05:49:22;3.50;;;2.23;;
6053;SDS011;3055;50.886;14.814;2022-07-25T05:51:50;2.20;;;2.00;;
6053;SDS011;3055;50.886;14.814;2022-07-25T05:54:17;2.23;;;2.00;;
6053;SDS011;3055;50.886;14.814;2022-07-25T05:56:44;5.20;;;1.87;;
6053;SDS011;3055;50.886;14.814;2022-07-25T05:59:11;2.40;;;2.03;;
6053;SDS011;3055;50.886;14.814;2022-07-25T06:01:38;2.43;;;2.23;;
6053;SDS011;3055;50.886;14.814;2022-07-25T06:04:04;2.83;;;2.40;;
